Time;durP1;ratioP1;P1;durP2;ratioP2;P2;SDS_P1;SDS_P2;PMS_P1;PMS_P2;Temp;Humidity;BMP_temperature;BMP_pressure;BME280_temperature;BME280_humidity;BME280_pressure;Samples;Min_cycle;Max_cycle;Signal;HPM_P1;HPM_P2
2022/09/05 00:02:05;;;;;;;0.73;0.73;;;10.90;99.90;10.20;101761;;;;563231;250;24107;-83
2022/09/05 00:04:42;;;;;;;1.33;0.70;;;10.90;99.90;10.10;101759;;;;561824;250;24093;-82
2022/09/05 00:07:37;;;;;;;0.67;0.60;;;10.80;99.90;10.10;101761;;;;573701;250;24118;-84
2022/09/05 00:10:38;;;;;;;1.43;0.93;;;10.80;99.90;10.10;101765;;;;571784;250;24100;-83
2022/09/05 00:13:06;;;;;;;0.77;0.77;;;10.80;99.90;10.10;101765;;;;574132;249;25134;-83
2022/09/05 00:15:34;;;;;;;0.87;0.87;;;10.70;99.90;10.00;101764;;;;573959;250;24112;-82
2022/09/05 00:18:45;;;;;;;0.80;0.77;;;10.70;99.90;10.00;101761;;;;562358;250;24105;-82
2022/09/05 00:21:25;;;;;;;1.33;0.87;;;10.70;99.90;9.90;101759;;;;559792;250;24123;-83
2022/09/05 00:24:24;;;;;;;1.27;0.87;;;10.50;99.90;9.80;101760;;;;568987;250;24096;-83
2022/09/05 00:27:16;;;;;;;4.33;1.17;;;10.50;99.90;9.80;101758;;;;565199;250;24133;-83
2022/09/05 00:29:52;;;;;;;1.00;0.90;;;10.50;99.90;9.70;101753;;;;565633;250;24121;-83
2022/09/05 00:32:35;;;;;;;0.80;0.80;;;10.40;99.90;9.70;101755;;;;564854;250;24089;-83
2022/09/05 00:35:45;;;;;;;0.70;0.70;;;10.40;99.90;9.60;101755;;;;573427;250;24097;-83
2022/09/05 00:38:18;;;;;;;2.87;1.33;;;10.40;99.90;9.60;101767;;;;573520;250;24134;-84
2022/09/05 00:40:49;;;;;;;0.93;0.93;;;10.30;99.90;9.60;101752;;;;561643;250;24106;-83
2022/09/05 00:43:23;;;;;;;0.93;0.93;;;10.20;99.90;9.60;101755;;;;565180;250;24093;-83
2022/09/05 00:45:54;;;;;;;1.00;1.00;;;10.20;99.90;9.50;101750;;;;566024;250;24101;-84
2022/09/05 00:48:46;;;;;;;1.20;1.10;;;10.30;99.90;9.50;101740;;;;573517;250;24144;-85
2022/09/05 00:51:32;;;;;;;2.00;1.27;;;10.20;99.90;9.50;101745;;;;573709;250;24098;-84
2022/09/05 00:54:11;;;;;;;1.00;1.00;;;10.20;99.90;9.50;101746;;;;561579;250;24111;-83
2022/09/05 00:56:58;;;;;;;1.37;1.27;;;10.20;99.90;9.50;101744;;;;561622;249;46101;-83
2022/09/05 00:59:35;;;;;;;3.10;1.10;;;10.20;99.90;9.40;101749;;;;565970;250;24103;-84
2022/09/05 01:02:30;;;;;;;2.57;1.30;;;10.20;99.90;9.40;101742;;;;566718;250;24169;-83
2022/09/05 01:05:01;;;;;;;1.97;1.17;;;10.20;99.90;9.40;101744;;;;566313;250;24092;-84
2022/09/05 01:07:44;;;;;;;1.07;1.07;;;10.10;99.90;9.40;101735;;;;562751;250;24100;-84
2022/09/05 01:10:52;;;;;;;1.00;1.00;;;10.10;99.90;9.40;101745;;;;573904;250;24195;-83
2022/09/05 01:13:54;;;;;;;1.60;1.50;;;10.10;99.90;9.30;101744;;;;560770;250;35251;-83
2022/09/05 01:16:34;;;;;;;2.13;1.30;;;10.10;99.90;9.30;101745;;;;574170;249;25161;-83
2022/09/05 01:19:17;;;;;;;1.93;1.27;;;10.00;99.90;9.30;101745;;;;561768;250;24140;-83
2022/09/05 01:22:34;;;;;;;1.37;1.27;;;10.00;99.90;9.20;101747;;;;573493;250;24122;-83
2022/09/05 01:25:23;;;;;;;1.50;1.07;;;10.00;99.90;9.20;101751;;;;565491;250;24122;-83
2022/09/05 01:28:05;;;;;;;1.20;1.20;;;9.90;99.90;9.20;101746;;;;566193;250;24089;-82
2022/09/05 01:30:51;;;;;;;2.50;1.17;;;9.90;99.90;9.10;101741;;;;566181;250;24127;-83
2022/09/05 01:33:25;;;;;;;1.23;1.23;;;9.90;99.90;9.10;101746;;;;561627;250;24095;-84
2022/09/05 01:36:38;;;;;;;2.57;1.20;;;9.80;99.90;9.00;101748;;;;559691;250;24125;-84
2022/09/05 01:39:31;;;;;;;3.17;1.77;;;9.80;99.90;9.00;101747;;;;565307;250;24094;-83
2022/09/05 01:42:32;;;;;;;1.27;1.17;;;9.70;99.90;8.90;101747;;;;562017;250;24150;-83
2022/09/05 01:45:24;;;;;;;1.30;1.30;;;9.70;99.90;8.90;101749;;;;561716;250;24106;-83
2022/09/05 01:48:05;;;;;;;2.23;1.50;;;9.60;99.90;8.90;101751;;;;573813;250;24118;-83
2022/09/05 01:50:51;;;;;;;1.37;1.30;;;9.60;99.90;8.90;101748;;;;564938;250;24089;-83
2022/09/05 01:53:37;;;;;;;2.33;1.53;;;9.60;99.90;8.90;101753;;;;565335;250;24164;-83
2022/09/05 01:56:41;;;;;;;2.20;2.00;;;9.60;99.90;8.90;101744;;;;560420;250;35259;-84
2022/09/05 01:59:46;;;;;;;1.67;1.57;;;9.60;99.90;8.90;101756;;;;562031;250;24211;-83
2022/09/05 02:02:59;;;;;;;4.50;1.67;;;9.60;99.90;8.90;101754;;;;561735;250;24139;-85
2022/09/05 02:05:46;;;;;;;4.20;1.33;;;9.60;99.90;8.90;101746;;;;565709;250;24143;-82
2022/09/05 02:08:44;;;;;;;2.20;1.70;;;9.60;99.90;8.80;101741;;;;566301;249;24129;-82
2022/09/05 02:11:15;;;;;;;2.77;1.63;;;9.60;99.90;8.80;101747;;;;565746;250;24165;-84
2022/09/05 02:13:43;;;;;;;1.77;1.40;;;9.50;99.90;8.80;101740;;;;565930;250;24096;-84
2022/09/05 02:16:38;;;;;;;4.43;1.73;;;9.50;99.90;8.80;101743;;;;565955;250;24116;-82
2022/09/05 02:19:11;;;;;;;1.53;1.40;;;9.50;99.90;8.80;101747;;;;574750;250;25124;-83
2022/09/05 02:21:49;;;;;;;2.80;1.47;;;9.50;99.90;8.80;101754;;;;565137;250;24087;-86
2022/09/05 02:24:26;;;;;;;2.57;1.50;;;9.50;99.90;8.70;101750;;;;567041;250;24096;-83
2022/09/05 02:27:05;;;;;;;2.83;1.40;;;9.50;99.90;8.80;101752;;;;575272;250;24141;-84
2022/09/05 02:29:48;;;;;;;2.47;1.90;;;9.50;99.90;8.70;101747;;;;575234;250;24092;-83
2022/09/05 02:32:37;;;;;;;4.73;2.07;;;9.40;99.90;8.70;101743;;;;565986;250;24113;-83
2022/09/05 02:35:14;;;;;;;3.17;1.63;;;9.30;99.90;8.60;101747;;;;562222;250;24098;-83
2022/09/05 02:37:47;;;;;;;3.00;1.60;;;9.30;99.90;8.50;101756;;;;565943;250;24096;-84
2022/09/05 02:40:19;;;;;;;1.57;1.47;;;9.30;99.90;8.50;101755;;;;561998;250;24090;-84
2022/09/05 02:43:01;;;;;;;3.33;1.67;;;9.20;99.90;8.40;101746;;;;561942;250;24136;-84
2022/09/05 02:45:41;;;;;;;5.83;2.17;;;9.20;99.90;8.40;101749;;;;565126;250;24101;-83
2022/09/05 02:48:20;;;;;;;2.37;2.20;;;9.10;99.90;8.40;101749;;;;574037;250;24081;-83
2022/09/05 02:51:12;;;;;;;2.30;2.10;;;9.10;99.90;8.40;101750;;;;565062;250;24166;-84
2022/09/05 02:53:40;;;;;;;3.17;2.17;;;9.10;99.90;8.40;101749;;;;565164;250;24106;-83
2022/09/05 02:56:23;;;;;;;2.13;1.87;;;9.10;99.90;8.40;101745;;;;565233;250;24090;-84
2022/09/05 02:59:09;;;;;;;2.67;1.97;;;9.10;99.90;8.40;101744;;;;572878;250;24097;-84
2022/09/05 03:01:54;;;;;;;5.90;2.07;;;9.10;99.90;8.30;101742;;;;574022;250;24108;-84
2022/09/05 03:04:49;;;;;;;2.50;2.30;;;9.00;99.90;8.30;101746;;;;573818;250;24094;-84
2022/09/05 03:07:38;;;;;;;2.60;2.40;;;9.00;99.90;8.30;101745;;;;561752;250;24079;-83
2022/09/05 03:10:30;;;;;;;2.17;2.00;;;9.00;99.90;8.20;101739;;;;561264;250;24097;-83
2022/09/05 03:13:26;;;;;;;4.93;2.83;;;8.90;99.90;8.30;101746;;;;565963;250;24175;-83
2022/09/05 03:16:34;;;;;;;3.03;2.73;;;8.90;99.90;8.20;101741;;;;561352;250;24133;-84
2022/09/05 03:19:46;;;;;;;4.23;2.70;;;8.90;99.90;8.20;101746;;;;566030;248;24150;-84
2022/09/05 03:22:57;;;;;;;3.23;2.43;;;8.90;99.90;8.10;101752;;;;566528;250;24131;-83
2022/09/05 03:26:02;;;;;;;2.60;2.37;;;8.80;99.90;8.00;101748;;;;562600;250;24157;-83
2022/09/05 03:28:55;;;;;;;3.57;2.33;;;8.80;99.90;8.00;101748;;;;566044;250;24122;-84
2022/09/05 03:31:59;;;;;;;2.63;2.43;;;8.70;99.90;7.90;101753;;;;566355;250;24106;-85
2022/09/05 03:34:39;;;;;;;2.93;2.73;;;8.70;99.90;7.90;101753;;;;562814;250;24111;-84
2022/09/05 03:38:03;;;;;;;4.70;2.70;;;8.70;99.90;7.90;101762;;;;566255;250;24159;-83
2022/09/05 03:40:39;;;;;;;3.10;2.53;;;8.60;99.90;7.90;101754;;;;565579;250;24110;-84
2022/09/05 03:43:28;;;;;;;3.00;2.80;;;8.60;99.90;7.90;101760;;;;562389;250;24144;-84
2022/09/05 03:46:08;;;;;;;2.40;2.20;;;8.60;99.90;7.90;101763;;;;561575;250;24137;-85
2022/09/05 03:48:51;;;;;;;2.23;1.53;;;8.60;99.90;7.90;101758;;;;565815;250;24104;-84
2022/09/05 03:51:31;;;;;;;2.67;2.40;;;8.60;99.90;7.80;101757;;;;565949;250;24129;-83
2022/09/05 03:54:24;;;;;;;2.63;1.77;;;8.60;99.90;7.80;101755;;;;564762;250;24089;-84
2022/09/05 03:57:25;;;;;;;2.80;2.10;;;8.50;99.90;7.80;101753;;;;565474;250;24156;-84
2022/09/05 04:00:20;;;;;;;3.53;2.40;;;8.50;99.90;7.80;101760;;;;574361;250;24081;-84
2022/09/05 04:03:00;;;;;;;3.50;2.53;;;8.50;99.90;7.80;101752;;;;565307;250;24099;-84
2022/09/05 04:05:31;;;;;;;5.27;2.10;;;8.50;99.90;7.70;101758;;;;573174;250;24115;-84
2022/09/05 04:08:13;;;;;;;2.43;2.20;;;8.50;99.90;7.70;101754;;;;561508;250;24103;-84
2022/09/05 04:11:02;;;;;;;2.67;2.37;;;8.50;99.90;7.80;101758;;;;561711;250;24099;-84
2022/09/05 04:13:42;;;;;;;3.07;2.43;;;8.50;99.90;7.70;101759;;;;561500;250;24085;-84
2022/09/05 04:16:25;;;;;;;4.50;2.47;;;8.50;99.90;7.70;101760;;;;564962;250;24094;-84
2022/09/05 04:18:53;;;;;;;3.07;2.27;;;8.50;99.90;7.70;101767;;;;559083;250;24100;-84
2022/09/05 04:21:30;;;;;;;4.00;2.50;;;8.40;99.90;7.70;101761;;;;565057;250;24120;-84
2022/09/05 04:24:10;;;;;;;3.07;2.80;;;8.50;99.90;7.70;101761;;;;565235;250;24101;-84
2022/09/05 04:26:53;;;;;;;4.73;2.63;;;8.50;99.90;7.80;101760;;;;573352;250;24092;-83
2022/09/05 04:29:48;;;;;;;4.70;2.53;;;8.50;99.90;7.80;101773;;;;561110;250;24087;-84
2022/09/05 04:32:22;;;;;;;3.17;2.43;;;8.50;99.90;7.80;101769;;;;575262;245;24148;-84
2022/09/05 04:35:14;;;;;;;5.00;2.70;;;8.50;99.90;7.80;101761;;;;574199;250;24163;-83
2022/09/05 04:38:14;;;;;;;4.50;2.70;;;8.50;99.90;7.80;101760;;;;562254;250;24088;-83
2022/09/05 04:40:48;;;;;;;6.97;3.23;;;8.60;99.90;7.90;101761;;;;562503;250;24099;-84
2022/09/05 04:43:52;;;;;;;4.53;2.40;;;8.60;99.90;7.90;101767;;;;566069;250;24123;-83
2022/09/05 04:46:29;;;;;;;4.20;3.03;;;8.60;99.90;8.00;101775;;;;566069;250;24139;-84
2022/09/05 04:49:00;;;;;;;3.73;2.90;;;8.70;99.90;8.00;101778;;;;574102;250;24091;-84
2022/09/05 04:51:52;;;;;;;4.60;3.10;;;8.70;99.90;8.10;101782;;;;573484;250;24122;-84
2022/09/05 04:54:41;;;;;;;4.93;3.50;;;8.80;99.90;8.20;101796;;;;565493;250;24090;-83
2022/09/05 04:57:42;;;;;;;7.37;3.27;;;8.80;99.90;8.20;101795;;;;565217;250;24103;-84
2022/09/05 05:00:14;;;;;;;6.80;3.27;;;8.90;99.90;8.30;101796;;;;565808;250;24138;-84
2022/09/05 05:02:47;;;;;;;7.90;3.30;;;8.90;99.90;8.30;101809;;;;573998;250;24176;-84
2022/09/05 05:05:21;;;;;;;11.00;3.17;;;9.00;99.90;8.40;101804;;;;565350;250;24104;-84
2022/09/05 05:07:57;;;;;;;6.47;2.93;;;9.10;99.90;8.40;101811;;;;561950;250;24102;-84
2022/09/05 05:10:33;;;;;;;3.93;3.50;;;9.10;99.90;8.50;101811;;;;564718;250;24134;-84
2022/09/05 05:13:01;;;;;;;7.00;4.00;;;9.20;99.90;8.60;101816;;;;559267;250;24084;-85
2022/09/05 05:15:29;;;;;;;5.40;3.70;;;9.20;99.90;8.60;101813;;;;564287;250;24120;-83
2022/09/05 05:18:06;;;;;;;9.27;4.00;;;9.30;99.90;8.70;101812;;;;565455;250;24119;-85
2022/09/05 05:20:42;;;;;;;5.80;4.43;;;9.40;99.90;8.80;101818;;;;563937;250;24118;-84
2022/09/05 05:23:13;;;;;;;6.13;4.30;;;9.50;99.90;9.00;101829;;;;564529;250;24187;-85
2022/09/05 05:25:50;;;;;;;6.17;3.60;;;9.60;99.90;9.10;101814;;;;566040;250;24135;-85
2022/09/05 05:28:45;;;;;;;6.93;3.53;;;9.80;99.90;9.30;101823;;;;565462;250;24121;-85
2022/09/05 05:31:21;;;;;;;4.97;3.40;;;9.90;99.90;9.40;101821;;;;564686;250;24096;-84
2022/09/05 05:33:49;;;;;;;4.80;3.63;;;10.10;99.90;9.60;101823;;;;565140;250;24097;-84
2022/09/05 05:36:17;;;;;;;5.97;4.10;;;10.30;99.90;9.80;101823;;;;573598;249;24156;-84
2022/09/05 05:38:48;;;;;;;3.63;3.33;;;10.50;99.90;9.90;101828;;;;573339;250;24085;-84
2022/09/05 05:41:18;;;;;;;4.83;3.93;;;10.60;99.90;10.10;101824;;;;573104;250;24102;-84
2022/09/05 05:43:46;;;;;;;11.97;6.63;;;10.80;99.90;10.30;101835;;;;575102;248;24148;-85
2022/09/05 05:46:14;;;;;;;18.23;6.07;;;11.00;99.90;10.40;101828;;;;566367;250;24150;-84
2022/09/05 05:48:42;;;;;;;6.97;5.13;;;11.20;99.90;10.60;101821;;;;574365;249;24104;-83
2022/09/05 05:51:41;;;;;;;14.70;6.63;;;11.30;99.90;10.70;101829;;;;574496;249;24092;-83
2022/09/05 05:54:20;;;;;;;10.77;4.17;;;11.50;99.90;10.90;101832;;;;566400;250;24150;-83
2022/09/05 05:57:03;;;;;;;3.80;3.50;;;11.60;99.90;11.10;101830;;;;574639;249;24145;-84
2022/09/05 06:00:06;;;;;;;5.30;3.00;;;11.70;99.90;11.30;101833;;;;562067;250;24083;-84
2022/09/05 06:02:59;;;;;;;5.93;3.20;;;11.90;99.90;11.50;101832;;;;562421;250;24088;-84
2022/09/05 06:06:06;;;;;;;6.40;3.43;;;12.20;99.90;11.60;101835;;;;561885;250;24099;-84
2022/09/05 06:08:57;;;;;;;6.67;3.57;;;12.30;99.90;11.70;101842;;;;562787;250;24088;-84
2022/09/05 06:11:49;;;;;;;6.53;3.60;;;12.50;99.90;11.80;101844;;;;562960;250;24112;-84
2022/09/05 06:14:36;;;;;;;9.53;3.70;;;12.60;99.90;11.90;101829;;;;562433;250;24088;-86
2022/09/05 06:17:46;;;;;;;7.53;3.47;;;12.60;99.90;12.00;101836;;;;573676;250;24130;-83
2022/09/05 06:20:37;;;;;;;15.37;3.83;;;12.70;99.90;12.10;101846;;;;565648;250;24082;-85
2022/09/05 06:23:33;;;;;;;8.97;3.00;;;12.80;99.90;12.20;101845;;;;562664;250;24137;-84
2022/09/05 06:26:28;;;;;;;7.77;3.87;;;12.90;99.90;12.30;101855;;;;562369;250;24133;-85
2022/09/05 06:29:35;;;;;;;9.73;3.57;;;13.00;99.90;12.40;101855;;;;574793;250;24093;-84
2022/09/05 06:32:33;;;;;;;7.53;2.50;;;13.10;99.90;12.50;101857;;;;559992;250;24099;-85
2022/09/05 06:35:26;;;;;;;26.93;3.77;;;13.20;99.90;12.70;101862;;;;562762;250;24099;-84
2022/09/05 06:38:25;;;;;;;14.87;3.60;;;13.30;99.90;12.90;101870;;;;562125;250;25132;-85
2022/09/05 06:41:26;;;;;;;14.20;3.53;;;13.50;99.90;13.00;101871;;;;561847;250;24091;-84
2022/09/05 06:44:21;;;;;;;5.90;2.83;;;13.70;99.90;13.30;101859;;;;565692;250;24090;-85
2022/09/05 06:46:49;;;;;;;12.13;2.70;;;13.90;99.90;13.50;101861;;;;562252;250;24124;-85
2022/09/05 06:49:24;;;;;;;16.50;2.80;;;14.40;99.90;13.70;101858;;;;573737;249;24105;-85
2022/09/05 06:52:18;;;;;;;6.37;2.57;;;14.30;99.90;14.00;101862;;;;565240;250;24108;-84
2022/09/05 06:55:23;;;;;;;3.50;2.13;;;14.60;99.90;14.20;101873;;;;562298;249;24093;-84
2022/09/05 06:58:35;;;;;;;7.93;2.37;;;14.90;99.90;14.60;101871;;;;562571;250;24084;-84
2022/09/05 07:01:04;;;;;;;3.93;1.90;;;15.20;99.90;15.10;101878;;;;562913;250;24078;-85
2022/09/05 07:04:23;;;;;;;4.00;2.30;;;15.60;99.90;15.40;101871;;;;565742;250;24090;-84
2022/09/05 07:07:15;;;;;;;8.37;2.10;;;16.00;99.90;15.90;101881;;;;563152;250;24074;-84
2022/09/05 07:09:58;;;;;;;4.50;1.37;;;16.50;99.90;16.20;101883;;;;565756;250;24115;-84
2022/09/05 07:12:28;;;;;;;7.00;2.00;;;16.80;99.90;16.50;101885;;;;562940;250;24082;-84
2022/09/05 07:15:14;;;;;;;5.07;1.63;;;17.10;99.90;16.70;101889;;;;565400;250;24096;-84
2022/09/05 07:18:00;;;;;;;3.43;1.20;;;17.30;99.90;16.80;101885;;;;565629;250;24103;-84
2022/09/05 07:20:34;;;;;;;2.80;1.43;;;17.40;99.90;17.00;101881;;;;562677;250;24087;-85
2022/09/05 07:23:16;;;;;;;3.13;1.40;;;17.60;99.90;17.20;101885;;;;573856;250;24119;-84
2022/09/05 07:25:44;;;;;;;1.80;1.30;;;17.70;99.90;17.40;101887;;;;565814;250;24146;-82
2022/09/05 07:28:12;;;;;;;7.07;1.87;;;18.00;99.90;17.60;101895;;;;574362;249;24126;-84
2022/09/05 07:30:40;;;;;;;1.27;1.20;;;18.20;99.90;17.80;101884;;;;573802;250;24162;-84
2022/09/05 07:33:11;;;;;;;1.80;1.40;;;18.40;99.90;17.80;101889;;;;565024;250;24099;-84
2022/09/05 07:35:36;;;;;;;8.63;1.60;;;18.40;99.90;17.90;101891;;;;564854;250;24098;-84
2022/09/05 07:38:12;;;;;;;33.87;6.40;;;18.50;99.90;17.90;101898;;;;573882;249;24082;-84
2022/09/05 07:40:35;;;;;;;8.23;1.87;;;18.60;99.90;17.90;101906;;;;573421;250;24093;-84
2022/09/05 07:43:03;;;;;;;4.60;1.77;;;18.50;99.90;17.90;101907;;;;573828;249;24089;-85
2022/09/05 07:45:34;;;;;;;2.27;1.93;;;18.60;99.90;17.90;101911;;;;573721;249;24082;-84
2022/09/05 07:48:11;;;;;;;5.27;2.00;;;18.50;99.90;17.80;101904;;;;573370;250;24195;-84
2022/09/05 07:50:51;;;;;;;19.67;3.50;;;18.30;99.90;17.80;101906;;;;565022;250;24216;-84
2022/09/05 07:53:24;;;;;;;3.80;2.43;;;18.30;99.90;17.70;101909;;;;566456;250;24126;-83
2022/09/05 07:55:52;;;;;;;7.87;2.87;;;18.30;99.90;17.70;101916;;;;564798;250;24159;-84
2022/09/05 07:58:20;;;;;;;8.47;2.30;;;18.30;99.90;17.80;101912;;;;565323;250;24078;-84
2022/09/05 08:00:52;;;;;;;10.40;2.47;;;18.30;99.90;17.80;101917;;;;573763;249;24075;-84
2022/09/05 08:03:20;;;;;;;7.23;2.00;;;18.30;99.90;17.80;101915;;;;565395;250;24124;-83
2022/09/05 08:05:49;;;;;;;5.27;2.03;;;18.40;99.90;17.90;101922;;;;574335;248;24081;-83
2022/09/05 08:08:16;;;;;;;10.03;2.87;;;18.50;99.90;18.10;101923;;;;574986;249;24095;-85
2022/09/05 08:10:50;;;;;;;5.93;2.43;;;18.60;99.90;18.20;101915;;;;574630;249;24100;-83
2022/09/05 08:13:17;;;;;;;3.37;2.47;;;18.70;99.90;18.30;101918;;;;563026;250;24136;-84
2022/09/05 08:15:46;;;;;;;2.10;1.93;;;18.80;99.90;18.30;101917;;;;562126;250;24089;-84
2022/09/05 08:18:28;;;;;;;3.77;2.13;;;18.90;99.90;18.40;101909;;;;574356;249;24082;-84
2022/09/05 08:21:22;;;;;;;8.83;2.87;;;18.90;99.90;18.40;101906;;;;566160;250;24066;-84
2022/09/05 08:24:02;;;;;;;13.73;2.97;;;19.00;99.90;18.60;101902;;;;559435;252;24201;-84
2022/09/05 08:26:42;;;;;;;17.50;6.10;;;19.20;99.90;19.10;101908;;;;549819;257;24212;-83
2022/09/05 08:29:37;;;;;;;10.17;2.97;;;19.50;99.90;19.70;101906;;;;551468;255;24189;-85
2022/09/05 08:32:15;;;;;;;35.43;5.10;;;20.60;99.90;20.20;101904;;;;561290;252;24113;-82
2022/09/05 08:35:01;;;;;;;5.97;2.43;;;20.60;99.90;20.50;101910;;;;561174;252;24106;-84
2022/09/05 08:37:32;;;;;;;6.13;2.83;;;20.90;99.90;20.80;101912;;;;549185;254;24159;-84
2022/09/05 08:39:59;;;;;;;5.17;2.77;;;21.30;99.90;20.90;101914;;;;565054;250;24185;-84
2022/09/05 08:42:48;;;;;;;8.23;3.23;;;21.50;99.90;21.00;101914;;;;573825;249;24099;-84
2022/09/05 08:45:22;;;;;;;9.33;3.63;;;21.60;99.90;20.90;101912;;;;562631;250;24085;-84
2022/09/05 08:48:46;;;;;;;13.47;3.27;;;21.50;99.90;20.90;101913;;;;562260;250;23133;-84
2022/09/05 08:51:41;;;;;;;6.70;2.77;;;21.50;99.90;20.90;101919;;;;561937;250;24129;-85
2022/09/05 08:54:29;;;;;;;5.13;2.60;;;21.50;99.90;20.80;101917;;;;554546;255;23213;-84
2022/09/05 08:57:12;;;;;;;7.93;2.57;;;21.40;99.30;20.80;101916;;;;548430;257;24145;-84
2022/09/05 08:59:55;;;;;;;2.30;2.10;;;21.40;99.60;20.70;101918;;;;559398;252;24099;-84
2022/09/05 09:02:35;;;;;;;5.23;2.47;;;21.30;98.90;20.60;101910;;;;548647;257;24229;-83
2022/09/05 09:05:52;;;;;;;2.97;1.47;;;21.20;99.80;20.60;101906;;;;559242;250;24137;-83
2022/09/05 09:08:31;;;;;;;3.53;1.77;;;21.10;98.50;20.40;101903;;;;562651;250;23095;-83
2022/09/05 09:10:59;;;;;;;6.30;1.80;;;21.00;98.80;20.40;101912;;;;562127;250;23115;-84
2022/09/05 09:13:42;;;;;;;2.70;1.00;;;21.00;99.00;20.50;101911;;;;573551;249;24163;-84
2022/09/05 09:16:40;;;;;;;2.17;1.00;;;21.10;98.60;20.30;101924;;;;564978;250;24075;-84
2022/09/05 09:19:23;;;;;;;1.20;0.87;;;21.00;97.60;20.20;101917;;;;567034;250;23102;-84
2022/09/05 09:22:13;;;;;;;1.50;1.40;;;20.70;98.60;20.10;101915;;;;559990;250;24142;-82
2022/09/05 09:24:53;;;;;;;3.10;0.97;;;20.40;98.70;19.80;101913;;;;563517;250;24070;-83
2022/09/05 09:27:51;;;;;;;6.63;0.80;;;20.40;98.70;19.50;101904;;;;563353;250;24150;-83
2022/09/05 09:30:20;;;;;;;5.93;1.17;;;19.90;99.90;19.30;101909;;;;557236;250;24074;-83
2022/09/05 09:32:51;;;;;;;1.57;1.00;;;19.90;99.90;19.30;101910;;;;574394;246;24161;-83
2022/09/05 09:35:52;;;;;;;5.07;0.90;;;19.80;99.90;19.40;101908;;;;565763;250;24097;-83
2022/09/05 09:38:26;;;;;;;2.60;0.83;;;19.90;99.90;19.40;101904;;;;565978;250;24092;-84
2022/09/05 09:41:18;;;;;;;1.90;0.70;;;19.90;99.90;19.40;101903;;;;561506;250;24124;-83
2022/09/05 09:44:11;;;;;;;6.60;1.00;;;19.90;98.40;19.50;101907;;;;565733;250;25162;-83
2022/09/05 09:46:45;;;;;;;0.97;0.40;;;19.90;98.40;19.50;101910;;;;565986;250;24095;-83
2022/09/05 09:49:40;;;;;;;0.40;0.40;;;20.00;96.50;19.40;101903;;;;573434;249;24082;-82
2022/09/05 09:52:33;;;;;;;0.77;0.50;;;20.00;95.00;19.40;101912;;;;562559;250;24128;-83
2022/09/05 09:55:39;;;;;;;1.37;0.60;;;20.00;93.90;19.40;101901;;;;565979;249;24115;-84
2022/09/05 09:58:12;;;;;;;1.90;0.50;;;20.00;93.90;19.50;101910;;;;562130;250;24109;-83
2022/09/05 10:01:20;;;;;;;3.03;0.57;;;20.10;92.60;19.60;101901;;;;565273;250;24127;-84
2022/09/05 10:04:06;;;;;;;3.70;0.50;;;20.20;92.80;19.70;101903;;;;562472;250;24126;-84
2022/09/05 10:06:57;;;;;;;2.33;0.67;;;20.20;92.20;19.80;101904;;;;556864;250;35236;-83
2022/09/05 10:10:09;;;;;;;1.40;0.63;;;20.30;91.90;19.70;101905;;;;561864;250;24468;-83
2022/09/05 10:12:46;;;;;;;0.80;0.70;;;20.20;92.30;19.70;101897;;;;565745;249;24140;-83
2022/09/05 10:15:29;;;;;;;0.60;0.40;;;20.20;92.30;19.80;101890;;;;561675;250;24084;-83
2022/09/05 10:18:08;;;;;;;9.93;1.47;;;20.30;92.30;20.00;101889;;;;562028;250;23110;-83
2022/09/05 10:20:47;;;;;;;1.37;0.57;;;20.50;92.40;20.10;101899;;;;561570;250;24086;-83
2022/09/05 10:23:46;;;;;;;1.00;0.40;;;20.60;91.90;20.10;101894;;;;561974;250;24139;-83
2022/09/05 10:26:22;;;;;;;3.43;0.47;;;20.70;91.20;19.90;101890;;;;564925;250;24125;-81
2022/09/05 10:29:05;;;;;;;1.23;0.60;;;20.50;90.50;19.70;101890;;;;563000;249;24085;-82
2022/09/05 10:31:47;;;;;;;0.70;0.70;;;20.40;90.80;19.50;101893;;;;575044;246;24147;-81
2022/09/05 10:34:17;;;;;;;2.00;0.70;;;20.20;91.00;19.30;101884;;;;562363;250;24199;-82
2022/09/05 10:36:46;;;;;;;0.93;0.43;;;19.90;91.80;19.10;101882;;;;565197;250;24097;-80
2022/09/05 10:39:32;;;;;;;1.23;0.70;;;19.70;92.50;18.90;101880;;;;574287;249;24168;-82
2022/09/05 10:42:15;;;;;;;3.63;0.63;;;19.50;93.50;18.70;101881;;;;562855;250;24090;-82
2022/09/05 10:44:46;;;;;;;0.97;0.70;;;19.30;94.70;18.70;101882;;;;563240;250;24125;-83
2022/09/05 10:47:34;;;;;;;1.70;0.57;;;19.30;94.70;18.70;101879;;;;573939;249;24097;-83
2022/09/05 10:50:33;;;;;;;3.70;0.77;;;19.30;93.80;19.00;101882;;;;565715;250;24097;-82
2022/09/05 10:53:35;;;;;;;0.40;0.40;;;19.80;93.20;19.30;101874;;;;565721;250;24094;-83
2022/09/05 10:56:17;;;;;;;0.87;0.60;;;19.80;93.20;19.70;101879;;;;562464;250;24148;-83
2022/09/05 10:59:00;;;;;;;0.33;0.30;;;20.20;88.80;19.90;101875;;;;564863;250;26256;-83
2022/09/05 11:01:41;;;;;;;0.67;0.60;;;20.40;87.80;20.20;101877;;;;565170;250;24086;-84
2022/09/05 11:04:33;;;;;;;6.30;0.90;;;20.70;88.20;20.50;101883;;;;562405;250;23135;-83
2022/09/05 11:07:06;;;;;;;0.43;0.43;;;21.10;87.20;20.60;101879;;;;564906;250;24131;-84
2022/09/05 11:10:01;;;;;;;4.93;0.80;;;21.20;86.70;20.70;101874;;;;558539;252;24221;-84
2022/09/05 11:13:07;;;;;;;0.43;0.40;;;21.30;86.30;20.50;101889;;;;561087;252;24215;-84
2022/09/05 11:15:50;;;;;;;0.43;0.43;;;21.20;87.50;20.20;101887;;;;561178;252;24190;-84
2022/09/05 11:18:38;;;;;;;1.10;0.70;;;20.90;89.70;20.00;101884;;;;556085;253;23221;-84
2022/09/05 11:21:27;;;;;;;0.40;0.40;;;20.70;90.70;19.80;101886;;;;550500;256;23199;-83
2022/09/05 11:23:55;;;;;;;2.67;0.60;;;20.50;91.20;19.30;101881;;;;569241;252;24137;-83
2022/09/05 11:26:41;;;;;;;0.47;0.47;;;20.00;91.40;18.90;101876;;;;569407;250;23136;-84
2022/09/05 11:29:12;;;;;;;0.50;0.50;;;19.70;92.10;18.60;101875;;;;561082;252;24109;-83
2022/09/05 11:31:58;;;;;;;0.50;0.50;;;19.30;93.10;18.30;101877;;;;569237;250;24194;-85
2022/09/05 11:34:59;;;;;;;0.40;0.40;;;19.00;93.90;17.90;101878;;;;560103;252;24116;-84
2022/09/05 11:37:58;;;;;;;0.80;0.80;;;18.60;95.00;17.70;101873;;;;560730;252;24088;-84
2022/09/05 11:40:47;;;;;;;0.50;0.50;;;18.30;95.90;17.50;101870;;;;561011;251;24118;-83
2022/09/05 11:43:42;;;;;;;1.90;0.50;;;18.10;96.10;17.50;101861;;;;561961;251;24115;-84
2022/09/05 11:46:31;;;;;;;4.33;0.90;;;17.90;97.00;17.40;101871;;;;565653;251;24119;-83
2022/09/05 11:49:17;;;;;;;1.80;0.70;;;17.90;97.20;17.40;101857;;;;561943;251;24155;-83
2022/09/05 11:52:22;;;;;;;0.90;0.40;;;17.90;97.00;17.40;101852;;;;561198;252;24111;-83
2022/09/05 11:55:33;;;;;;;2.07;0.50;;;17.90;97.10;17.40;101848;;;;561214;252;24146;-83
2022/09/05 11:58:34;;;;;;;3.83;0.60;;;17.90;95.80;17.30;101853;;;;556673;252;24129;-83
2022/09/05 12:01:40;;;;;;;2.17;0.97;;;17.80;94.90;17.20;101845;;;;560347;252;24123;-83
2022/09/05 12:04:31;;;;;;;1.00;0.60;;;17.80;94.70;17.20;101855;;;;560331;252;24139;-83
2022/09/05 12:07:37;;;;;;;0.77;0.50;;;17.70;93.90;17.20;101843;;;;560589;252;24120;-83
2022/09/05 12:10:22;;;;;;;2.50;0.40;;;17.70;93.30;17.30;101852;;;;560607;252;24137;-83
2022/09/05 12:13:08;;;;;;;0.80;0.23;;;17.80;93.60;17.40;101842;;;;560954;252;24140;-85
2022/09/05 12:15:43;;;;;;;0.67;0.50;;;18.00;94.00;17.60;101851;;;;561498;252;24142;-83
2022/09/05 12:18:14;;;;;;;2.13;0.50;;;18.20;94.40;17.70;101840;;;;568843;250;24191;-84
2022/09/05 12:21:18;;;;;;;2.42;0.60;;;18.10;94.30;17.90;101845;;;;555989;252;35418;-84
2022/09/05 12:23:59;;;;;;;18.40;1.90;;;18.30;94.40;17.90;101840;;;;564779;252;24137;-84
2022/09/05 12:26:32;;;;;;;1.43;0.40;;;18.50;94.20;18.00;101836;;;;560554;252;24230;-84
2022/09/05 12:29:18;;;;;;;12.63;1.30;;;18.50;93.20;18.00;101835;;;;569616;251;24130;-84
2022/09/05 12:31:49;;;;;;;5.50;0.83;;;18.50;94.40;17.90;101837;;;;560921;252;24207;-83
2022/09/05 12:34:17;;;;;;;4.30;0.67;;;18.40;94.00;17.80;101827;;;;569166;251;24156;-83
2022/09/05 12:36:43;;;;;;;3.70;0.70;;;18.40;93.90;17.70;101823;;;;568988;250;24294;-84